Time;durP1;ratioP1;P1;durP2;ratioP2;P2;SDS_P1;SDS_P2;PMS_P1;PMS_P2;Temp;Humidity;BMP_temperature;BMP_pressure;BME280_temperature;BME280_humidity;BME280_pressure;Samples;Min_cycle;Max_cycle;Signal;HPM_P1;HPM_P2
2022/04/15 00:00:14;;;;;;;55.72;30.20;;;6.70;99.90;;;;;;5014345;28;20073;-77
2022/04/15 00:02:41;;;;;;;47.13;25.40;;;6.60;99.90;;;;;;4996236;28;20042;-77
2022/04/15 00:07:51;;;;;;;49.13;25.67;;;6.40;99.90;;;;;;5015683;28;20052;-77
2022/04/15 00:10:18;;;;;;;46.85;23.30;;;6.40;99.90;;;;;;5022344;28;20057;-77
2022/04/15 00:12:46;;;;;;;42.65;21.58;;;6.40;1.00;;;;;;5031414;28;20462;-77
2022/04/15 00:15:15;;;;;;;37.75;20.45;;;6.40;99.90;;;;;;5033151;28;20045;-77
2022/04/15 00:17:42;;;;;;;39.45;20.45;;;6.40;1.00;;;;;;5033891;28;20493;-77
2022/04/15 00:20:11;;;;;;;39.20;19.88;;;6.40;1.00;;;;;;5033768;28;20037;-77
2022/04/15 00:22:39;;;;;;;34.45;19.60;;;6.40;1.00;;;;;;5033840;28;20087;-77
2022/04/15 00:25:07;;;;;;;37.85;20.00;;;6.40;99.90;;;;;;5033855;28;20140;-77
2022/04/15 00:27:34;;;;;;;39.95;21.55;;;6.40;99.90;;;;;;5034090;28;20053;-77
2022/04/15 00:30:02;;;;;;;43.53;23.90;;;6.50;99.90;;;;;;5034105;28;20053;-77
2022/04/15 00:32:30;;;;;;;45.38;25.17;;;6.40;1.00;;;;;;5033504;28;20041;-78
2022/04/15 00:34:58;;;;;;;44.70;24.42;;;6.30;1.00;;;;;;5033246;28;20077;-77
2022/04/15 00:37:25;;;;;;;47.35;27.02;;;6.20;1.00;;;;;;5065273;28;20155;-77
2022/04/15 00:39:53;;;;;;;46.75;24.98;;;6.20;1.00;;;;;;5074824;28;20041;-77
2022/04/15 00:42:22;;;;;;;55.05;27.30;;;6.20;1.00;;;;;;5073449;28;20044;-77
2022/04/15 00:44:53;;;;;;;51.67;28.25;;;6.20;1.00;;;;;;5072538;28;20439;-77
2022/04/15 00:47:31;;;;;;;41.45;23.30;;;6.20;1.00;;;;;;5073065;28;20040;-77
2022/04/15 00:50:00;;;;;;;38.35;22.98;;;6.30;1.00;;;;;;5073238;28;20045;-76
2022/04/15 00:52:33;;;;;;;42.95;21.63;;;6.30;1.00;;;;;;5073045;28;20072;-76
2022/04/15 00:55:03;;;;;;;35.30;20.48;;;6.20;1.00;;;;;;5073309;28;20044;-75
2022/04/15 00:57:33;;;;;;;38.83;20.40;;;6.20;1.00;;;;;;5065891;28;20068;-76
2022/04/15 01:00:04;;;;;;;33.88;21.05;;;6.20;1.00;;;;;;5065426;28;20044;-76
2022/04/15 01:02:33;;;;;;;39.22;20.67;;;6.10;1.00;;;;;;5055749;28;20068;-76
2022/04/15 01:05:03;;;;;;;38.60;20.08;;;6.10;1.00;;;;;;5074083;28;20040;-77
2022/04/15 01:07:34;;;;;;;41.58;23.55;;;6.10;1.00;;;;;;5068680;28;20037;-77
2022/04/15 01:10:06;;;;;;;33.65;17.75;;;6.10;1.00;;;;;;5046757;28;20487;-78
2022/04/15 01:12:37;;;;;;;33.28;17.23;;;6.10;1.00;;;;;;5057462;28;20040;-77
2022/04/15 01:15:07;;;;;;;33.55;18.45;;;6.10;1.00;;;;;;5074222;28;20051;-77
2022/04/15 01:17:34;;;;;;;39.30;19.17;;;6.10;1.00;;;;;;5073482;28;20045;-77
2022/04/15 01:20:05;;;;;;;41.55;21.05;;;6.10;1.00;;;;;;5073782;28;20396;-77
2022/04/15 01:22:36;;;;;;;40.53;21.20;;;6.00;1.00;;;;;;5078206;28;20040;-77
2022/04/15 01:25:06;;;;;;;37.85;21.92;;;6.00;1.00;;;;;;5077922;28;20115;-77
2022/04/15 01:27:35;;;;;;;40.15;22.35;;;6.00;1.00;;;;;;5083049;28;20140;-77
2022/04/15 01:30:02;;;;;;;44.60;21.88;;;6.00;1.00;;;;;;5077108;28;20496;-76
2022/04/15 01:32:30;;;;;;;42.50;22.67;;;5.90;1.00;;;;;;5075711;28;20051;-75
2022/04/15 01:34:58;;;;;;;38.92;22.35;;;5.80;1.00;;;;;;5078890;28;20049;-77
2022/04/15 01:37:25;;;;;;;43.65;23.73;;;5.80;1.00;;;;;;5079046;28;20064;-77
2022/04/15 01:39:53;;;;;;;44.95;22.23;;;5.70;1.00;;;;;;5077845;28;20506;-77
2022/04/15 01:42:22;;;;;;;45.67;23.23;;;5.70;1.00;;;;;;5078005;28;20400;-77
2022/04/15 01:44:49;;;;;;;39.97;22.42;;;5.60;1.00;;;;;;5076081;28;20495;-77
2022/04/15 01:47:17;;;;;;;42.83;23.90;;;5.60;1.00;;;;;;5077377;28;20049;-76
2022/04/15 01:49:45;;;;;;;35.95;19.65;;;5.60;1.00;;;;;;5076291;28;20516;-77
2022/04/15 01:52:12;;;;;;;35.35;19.25;;;5.50;1.00;;;;;;5077589;28;20040;-77
2022/04/15 01:54:40;;;;;;;39.88;21.02;;;5.50;1.00;;;;;;5076560;28;20049;-77
2022/04/15 01:57:07;;;;;;;39.15;22.63;;;5.40;1.00;;;;;;5057782;28;20052;-77
2022/04/15 01:59:36;;;;;;;40.38;23.55;;;5.50;1.00;;;;;;5076196;28;20049;-77
2022/04/15 02:02:05;;;;;;;36.83;21.88;;;5.50;1.00;;;;;;5075877;28;20041;-77
2022/04/15 02:04:32;;;;;;;37.45;20.55;;;5.50;1.00;;;;;;5075890;28;20056;-77
2022/04/15 02:07:00;;;;;;;40.53;21.63;;;5.30;1.00;;;;;;5067248;28;20047;-78
2022/04/15 02:09:28;;;;;;;38.90;21.85;;;5.20;1.00;;;;;;5075249;28;20052;-77
2022/04/15 02:11:55;;;;;;;41.05;23.35;;;5.20;40.20;;;;;;5074209;28;20050;-77
2022/04/15 02:14:24;;;;;;;44.22;24.17;;;5.20;20.90;;;;;;5075733;28;20044;-77
2022/04/15 02:16:53;;;;;;;40.20;23.30;;;5.20;31.30;;;;;;5075741;28;20044;-77
2022/04/15 02:19:21;;;;;;;42.53;23.45;;;5.10;90.30;;;;;;5075460;28;20055;-77
2022/04/15 02:21:49;;;;;;;42.22;23.58;;;5.10;82.20;;;;;;5075745;28;20048;-77
2022/04/15 02:24:17;;;;;;;39.20;21.35;;;5.10;99.90;;;;;;5074013;28;20419;-77
2022/04/15 02:26:44;;;;;;;40.90;22.77;;;5.10;99.90;;;;;;5074513;28;20049;-77
2022/04/15 02:29:12;;;;;;;41.38;22.80;;;5.20;53.20;;;;;;5075233;28;20569;-77
2022/04/15 02:31:39;;;;;;;36.47;22.13;;;5.20;32.60;;;;;;5075755;28;20037;-77
2022/04/15 02:34:08;;;;;;;39.58;22.63;;;5.20;13.20;;;;;;5075429;28;20190;-77
2022/04/15 02:36:35;;;;;;;43.40;23.63;;;5.10;68.10;;;;;;5075116;28;20518;-77
2022/04/15 02:39:03;;;;;;;40.78;23.10;;;5.10;99.90;;;;;;5075073;28;20049;-77
2022/04/15 02:41:31;;;;;;;40.28;24.70;;;5.10;91.90;;;;;;5075485;28;20047;-77
2022/04/15 02:43:59;;;;;;;39.88;23.25;;;5.10;99.90;;;;;;5073676;28;20407;-77
2022/04/15 02:46:27;;;;;;;40.40;21.85;;;5.00;99.90;;;;;;5075216;28;20048;-77
2022/04/15 02:48:54;;;;;;;39.60;20.13;;;5.00;99.90;;;;;;5074587;28;20520;-76
2022/04/15 02:51:23;;;;;;;38.78;21.65;;;4.90;99.90;;;;;;5074505;28;20075;-77
2022/04/15 02:53:51;;;;;;;40.60;20.58;;;4.90;99.90;;;;;;5074393;28;20472;-76
2022/04/15 02:56:18;;;;;;;38.05;19.98;;;4.90;99.90;;;;;;5073180;28;20052;-77
2022/04/15 02:58:46;;;;;;;43.50;22.83;;;4.80;99.90;;;;;;5074645;28;20075;-76
2022/04/15 03:01:13;;;;;;;33.80;20.95;;;4.90;99.90;;;;;;5074339;28;20052;-76
2022/04/15 03:03:40;;;;;;;36.63;21.83;;;4.90;99.90;;;;;;5063346;28;20044;-77
2022/04/15 03:06:08;;;;;;;41.88;24.63;;;4.90;99.90;;;;;;5052827;28;20044;-77
2022/04/15 03:08:36;;;;;;;37.47;21.00;;;4.90;99.90;;;;;;5061872;28;20127;-76
2022/04/15 03:11:05;;;;;;;36.58;20.88;;;4.90;99.90;;;;;;5036473;28;20045;-76
2022/04/15 03:13:32;;;;;;;29.45;17.90;;;4.80;99.90;;;;;;5054334;28;20067;-76
2022/04/15 03:15:59;;;;;;;31.98;18.38;;;4.80;99.90;;;;;;5036816;28;20488;-77
2022/04/15 03:18:27;;;;;;;36.42;20.33;;;4.80;99.90;;;;;;5036499;28;20076;-77
2022/04/15 03:20:55;;;;;;;40.72;22.02;;;4.80;99.90;;;;;;5036232;28;20056;-76
2022/04/15 03:23:22;;;;;;;40.17;22.27;;;4.80;99.90;;;;;;5053801;28;20512;-77
2022/04/15 03:25:51;;;;;;;34.80;20.17;;;4.80;99.90;;;;;;5054359;28;20049;-76
2022/04/15 03:28:19;;;;;;;37.60;21.83;;;4.80;99.90;;;;;;5036244;28;20053;-77
2022/04/15 03:30:46;;;;;;;32.60;19.52;;;4.80;99.90;;;;;;5054652;28;20037;-77
2022/04/15 03:33:14;;;;;;;31.90;19.27;;;4.80;99.90;;;;;;5035869;28;20043;-76
2022/04/15 03:35:41;;;;;;;36.38;21.05;;;4.80;99.90;;;;;;5032821;28;20532;-76
2022/04/15 03:38:09;;;;;;;34.95;20.05;;;4.80;99.90;;;;;;4996601;28;20132;-76
2022/04/15 03:40:36;;;;;;;32.35;19.75;;;4.70;99.90;;;;;;5014361;28;20042;-77
2022/04/15 03:43:05;;;;;;;32.63;17.15;;;4.70;99.90;;;;;;5014249;28;20033;-77
2022/04/15 03:45:32;;;;;;;35.47;19.42;;;4.70;1.00;;;;;;5014381;28;20041;-76
2022/04/15 03:48:00;;;;;;;47.33;23.77;;;4.70;1.00;;;;;;5014085;28;20117;-77
2022/04/15 03:50:27;;;;;;;44.50;25.17;;;4.70;1.00;;;;;;5013437;28;20041;-77
2022/04/15 03:52:55;;;;;;;48.65;26.45;;;4.70;99.90;;;;;;5013971;28;20038;-76
2022/04/15 03:55:24;;;;;;;51.20;28.48;;;4.70;1.00;;;;;;5021738;28;20102;-76
2022/04/15 03:57:52;;;;;;;52.00;29.30;;;4.70;99.90;;;;;;5005754;28;20046;-76
2022/04/15 04:00:23;;;;;;;55.70;29.50;;;4.60;99.90;;;;;;5000287;28;20054;-76
2022/04/15 04:02:53;;;;;;;53.58;27.77;;;4.60;1.00;;;;;;5013958;28;20498;-76
2022/04/15 04:05:20;;;;;;;50.22;28.63;;;4.60;1.00;;;;;;5013954;28;20054;-76
2022/04/15 04:07:48;;;;;;;49.45;25.63;;;4.60;99.90;;;;;;5014281;28;20410;-76
2022/04/15 04:10:16;;;;;;;48.38;30.40;;;4.60;99.90;;;;;;5031196;28;20049;-76
2022/04/15 04:12:45;;;;;;;50.90;28.27;;;4.50;99.90;;;;;;5034170;28;20038;-77
2022/04/15 04:15:14;;;;;;;45.35;25.92;;;4.60;1.00;;;;;;5033042;28;20045;-77
2022/04/15 04:17:43;;;;;;;43.65;26.83;;;4.70;1.00;;;;;;5029173;28;20051;-77
2022/04/15 04:20:12;;;;;;;55.10;30.25;;;4.70;1.00;;;;;;5033973;28;20041;-77
2022/04/15 04:22:40;;;;;;;56.28;27.95;;;4.70;1.00;;;;;;5032351;28;20116;-76
2022/04/15 04:25:10;;;;;;;58.97;30.02;;;4.70;99.90;;;;;;5025362;28;20041;-77
2022/04/15 04:27:38;;;;;;;65.05;31.80;;;4.80;99.90;;;;;;5033957;28;20120;-77
2022/04/15 04:30:06;;;;;;;59.92;31.10;;;4.90;99.90;;;;;;5034072;28;20489;-77
2022/04/15 04:32:34;;;;;;;63.97;31.60;;;4.80;99.90;;;;;;5033563;28;20049;-77
2022/04/15 04:35:04;;;;;;;64.70;33.75;;;4.90;99.90;;;;;;5034214;28;20041;-77
2022/04/15 04:37:31;;;;;;;56.33;30.60;;;5.00;99.90;;;;;;5059931;28;20048;-77
2022/04/15 04:40:02;;;;;;;52.78;29.58;;;5.10;99.90;;;;;;5051245;28;20059;-77
2022/04/15 04:42:30;;;;;;;52.70;28.05;;;5.20;99.90;;;;;;5073439;28;20049;-76
2022/04/15 04:44:59;;;;;;;55.45;29.13;;;5.30;99.90;;;;;;5060998;28;20410;-75
2022/04/15 04:47:26;;;;;;;58.13;29.20;;;5.50;97.80;;;;;;5016191;28;20061;-76
2022/04/15 04:49:55;;;;;;;53.88;30.10;;;5.70;1.00;;;;;;5033879;28;20073;-76
2022/04/15 04:52:25;;;;;;;60.30;30.00;;;5.80;1.00;;;;;;5042082;28;20052;-76
2022/04/15 04:54:52;;;;;;;63.97;35.60;;;5.90;1.00;;;;;;5053829;28;20095;-76
2022/04/15 04:57:20;;;;;;;72.82;41.60;;;5.90;1.00;;;;;;5024896;28;20049;-76
2022/04/15 04:59:47;;;;;;;59.45;35.67;;;5.90;1.00;;;;;;5052959;28;20534;-76
2022/04/15 05:02:15;;;;;;;46.78;26.40;;;5.90;1.00;;;;;;5038186;28;20045;-76
2022/04/15 05:04:42;;;;;;;42.30;23.25;;;6.00;1.00;;;;;;5069944;28;20059;-77
2022/04/15 05:07:10;;;;;;;39.30;21.95;;;6.10;1.00;;;;;;5049178;28;20041;-76
2022/04/15 05:09:41;;;;;;;44.35;22.20;;;6.30;1.00;;;;;;5074551;28;20044;-77
2022/04/15 05:12:10;;;;;;;42.38;25.00;;;6.40;1.00;;;;;;5068540;28;20045;-77
2022/04/15 05:14:37;;;;;;;49.90;26.00;;;6.50;1.00;;;;;;5057526;28;20388;-77
2022/04/15 05:17:05;;;;;;;55.85;30.15;;;6.60;1.00;;;;;;5066586;28;20037;-77
2022/04/15 05:19:32;;;;;;;51.63;29.13;;;6.70;1.00;;;;;;5060247;28;20037;-77
2022/04/15 05:22:00;;;;;;;39.58;21.40;;;6.80;1.00;;;;;;5058817;28;20104;-77
2022/04/15 05:24:28;;;;;;;42.22;23.60;;;6.90;1.00;;;;;;5057316;28;20041;-77
2022/04/15 05:26:57;;;;;;;59.72;28.90;;;7.00;1.00;;;;;;5038596;28;20049;-77
2022/04/15 05:29:24;;;;;;;46.20;27.30;;;7.10;1.00;;;;;;5056987;28;20044;-76
2022/04/15 05:31:52;;;;;;;53.05;26.83;;;7.30;99.90;;;;;;5039484;28;20049;-77
2022/04/15 05:34:19;;;;;;;47.28;24.10;;;7.60;99.90;;;;;;5057959;28;20049;-76
2022/04/15 05:36:47;;;;;;;42.03;21.92;;;7.90;99.90;;;;;;5035792;28;20053;-77
2022/04/15 05:39:14;;;;;;;39.22;21.60;;;8.10;99.90;;;;;;5038359;28;20045;-77
2022/04/15 05:41:42;;;;;;;34.45;20.55;;;8.40;99.90;;;;;;5037886;28;20119;-77
2022/04/15 05:44:13;;;;;;;31.88;19.33;;;8.80;99.90;;;;;;5044132;28;20128;-77
2022/04/15 05:46:42;;;;;;;36.85;20.70;;;9.10;99.90;;;;;;5046589;28;20041;-76
2022/04/15 05:49:13;;;;;;;43.20;24.02;;;9.50;96.90;;;;;;5038318;28;20043;-76
2022/04/15 05:51:42;;;;;;;36.60;22.40;;;9.80;50.60;;;;;;5037933;28;20050;-76
2022/04/15 05:54:10;;;;;;;40.78;20.00;;;10.10;13.90;;;;;;5037936;28;20046;-76
2022/04/15 05:56:38;;;;;;;41.83;22.95;;;10.50;1.00;;;;;;5038590;28;20503;-75
2022/04/15 05:59:06;;;;;;;64.88;24.38;;;10.90;1.00;;;;;;5037104;28;20073;-75
2022/04/15 06:01:35;;;;;;;43.45;22.85;;;11.30;1.00;;;;;;5038361;28;20045;-75
2022/04/15 06:04:03;;;;;;;42.40;23.75;;;11.70;1.00;;;;;;5037635;28;20045;-74
2022/04/15 06:06:31;;;;;;;44.03;26.13;;;12.10;1.00;;;;;;5034788;28;20055;-75
2022/04/15 06:08:58;;;;;;;44.90;24.50;;;12.30;1.00;;;;;;5036265;28;20058;-75
2022/04/15 06:11:29;;;;;;;48.88;25.30;;;12.50;1.00;;;;;;5038112;28;20128;-75
2022/04/15 06:13:56;;;;;;;54.55;28.27;;;12.60;1.00;;;;;;5034550;28;20091;-75
2022/04/15 06:16:26;;;;;;;45.88;27.58;;;12.80;1.00;;;;;;5036229;28;20043;-75
2022/04/15 06:18:55;;;;;;;49.47;26.45;;;13.10;1.00;;;;;;5036347;28;20050;-76
2022/04/15 06:21:22;;;;;;;47.80;26.95;;;13.30;1.00;;;;;;5035933;28;20042;-75
2022/04/15 06:23:50;;;;;;;38.50;26.02;;;13.50;1.00;;;;;;5034436;28;20071;-75
2022/04/15 06:26:17;;;;;;;53.50;30.92;;;13.80;1.00;;;;;;5052073;28;20054;-76
2022/04/15 06:28:44;;;;;;;49.15;29.17;;;14.40;1.00;;;;;;5035800;28;20087;-76
2022/04/15 06:31:12;;;;;;;44.95;26.67;;;14.60;1.00;;;;;;5035596;28;20041;-75
2022/04/15 06:33:41;;;;;;;54.95;31.63;;;14.80;1.00;;;;;;5034422;28;20057;-76
2022/04/15 06:36:10;;;;;;;49.45;28.55;;;14.80;1.00;;;;;;5035983;28;20492;-75
2022/04/15 06:38:37;;;;;;;43.58;26.73;;;14.80;1.00;;;;;;5036398;28;20052;-75
2022/04/15 06:41:05;;;;;;;44.40;25.33;;;14.50;1.00;;;;;;5018305;28;20542;-75
2022/04/15 06:43:35;;;;;;;44.05;27.55;;;14.40;1.00;;;;;;5034770;28;20507;-75
2022/04/15 06:46:03;;;;;;;47.70;27.98;;;14.40;1.00;;;;;;5037895;28;20059;-76
2022/04/15 06:48:30;;;;;;;44.67;26.33;;;14.60;1.00;;;;;;5041414;28;20051;-76
2022/04/15 06:50:58;;;;;;;46.78;25.05;;;14.80;1.00;;;;;;5024688;28;20416;-76
2022/04/15 06:53:27;;;;;;;54.30;29.83;;;15.00;1.00;;;;;;5038970;28;20255;-76
2022/04/15 06:55:54;;;;;;;41.50;25.17;;;15.30;1.00;;;;;;5035641;28;20041;-76
2022/04/15 06:58:22;;;;;;;40.10;23.25;;;15.50;1.00;;;;;;5040185;28;20141;-75
2022/04/15 07:00:51;;;;;;;37.40;21.00;;;15.60;1.00;;;;;;5046201;28;20045;-75
2022/04/15 07:03:19;;;;;;;35.95;20.52;;;15.80;1.00;;;;;;5026619;28;20051;-75
2022/04/15 07:05:51;;;;;;;40.70;20.88;;;16.00;1.00;;;;;;5047078;28;20038;-75
2022/04/15 07:08:19;;;;;;;35.90;21.65;;;16.20;1.00;;;;;;5034405;28;20046;-75
2022/04/15 07:10:48;;;;;;;34.95;18.00;;;16.50;1.00;;;;;;5036657;28;20053;-76
2022/04/15 07:13:17;;;;;;;28.63;14.75;;;16.80;1.00;;;;;;5035695;28;20045;-75
2022/04/15 07:15:45;;;;;;;34.00;17.00;;;17.10;1.00;;;;;;5022998;28;20504;-75
2022/04/15 07:18:12;;;;;;;34.63;15.50;;;17.10;1.00;;;;;;5036784;28;20124;-74
2022/04/15 07:20:40;;;;;;;32.47;16.17;;;17.20;1.00;;;;;;5036059;28;20424;-75
2022/04/15 07:23:07;;;;;;;24.70;15.48;;;17.30;1.00;;;;;;5025096;28;20045;-76
2022/04/15 07:25:35;;;;;;;31.45;15.43;;;17.50;1.00;;;;;;5035486;28;20034;-75
2022/04/15 07:28:04;;;;;;;26.98;13.93;;;17.50;1.00;;;;;;5036191;28;20045;-76
2022/04/15 07:30:31;;;;;;;24.60;13.70;;;17.60;1.00;;;;;;5035277;28;20060;-75
2022/04/15 07:33:00;;;;;;;26.10;13.80;;;17.80;1.00;;;;;;5038276;28;20572;-74
2022/04/15 07:35:28;;;;;;;21.70;11.15;;;17.90;1.00;;;;;;5020094;28;20041;-75
2022/04/15 07:37:55;;;;;;;21.02;10.00;;;17.80;1.00;;;;;;5038558;28;20061;-76
2022/04/15 07:40:28;;;;;;;19.75;11.20;;;18.10;1.00;;;;;;5037993;28;20050;-75
2022/04/15 07:42:57;;;;;;;21.40;11.52;;;18.50;1.00;;;;;;5036121;28;20060;-75
2022/04/15 07:45:26;;;;;;;18.52;11.50;;;18.80;1.00;;;;;;5039269;28;20042;-76
2022/04/15 07:47:53;;;;;;;19.15;11.23;;;19.00;1.00;;;;;;5036074;28;20513;-76
2022/04/15 07:50:22;;;;;;;21.27;10.95;;;19.20;1.00;;;;;;5035254;28;20497;-75
2022/04/15 07:52:49;;;;;;;21.00;9.75;;;19.40;1.00;;;;;;5018477;28;20096;-76
2022/04/15 07:55:17;;;;;;;20.63;11.07;;;19.60;1.00;;;;;;5035630;28;20044;-75
2022/04/15 07:57:44;;;;;;;17.27;10.45;;;19.60;1.00;;;;;;5041801;28;20053;-76
2022/04/15 08:00:12;;;;;;;18.38;10.15;;;19.70;1.00;;;;;;5033913;28;20044;-76
2022/04/15 08:02:41;;;;;;;21.48;10.75;;;19.80;1.00;;;;;;5036829;28;20041;-75
2022/04/15 08:05:09;;;;;;;19.25;11.57;;;19.90;1.00;;;;;;5025710;28;20040;-75
2022/04/15 08:07:37;;;;;;;21.05;10.80;;;20.00;1.00;;;;;;5036037;28;20400;-75
2022/04/15 08:10:06;;;;;;;21.05;10.15;;;20.10;1.00;;;;;;5035961;28;20064;-76
2022/04/15 08:12:34;;;;;;;22.67;9.48;;;20.30;1.00;;;;;;5035660;28;20038;-77
2022/04/15 08:15:02;;;;;;;26.58;9.07;;;20.30;1.00;;;;;;5038972;28;20417;-74
2022/04/15 08:17:29;;;;;;;16.23;8.07;;;20.40;1.00;;;;;;5035177;28;20052;-75
2022/04/15 08:19:58;;;;;;;16.65;8.30;;;20.50;1.00;;;;;;5036057;28;20052;-75
2022/04/15 08:22:26;;;;;;;20.00;10.10;;;20.40;1.00;;;;;;5018082;28;20053;-74
2022/04/15 08:24:54;;;;;;;21.08;10.18;;;20.50;1.00;;;;;;5035956;28;20046;-75
2022/04/15 08:27:25;;;;;;;23.83;11.25;;;20.60;1.00;;;;;;5036738;28;20073;-74
2022/04/15 08:29:53;;;;;;;20.70;11.25;;;20.80;1.00;;;;;;5034723;28;20120;-75
2022/04/15 08:32:22;;;;;;;33.05;17.17;;;20.80;1.00;;;;;;5034244;28;20076;-76
2022/04/15 08:34:49;;;;;;;27.63;14.68;;;21.10;1.00;;;;;;5024803;28;20045;-75
2022/04/15 08:37:18;;;;;;;20.50;11.63;;;21.20;1.00;;;;;;5036388;28;20059;-75
2022/04/15 08:39:46;;;;;;;29.95;18.73;;;21.40;1.00;;;;;;5037645;28;20046;-75
2022/04/15 08:42:13;;;;;;;24.55;13.32;;;21.40;1.00;;;;;;5036137;28;20041;-76
2022/04/15 08:44:42;;;;;;;25.60;15.85;;;21.50;1.00;;;;;;5023557;28;20042;-75
2022/04/15 08:47:11;;;;;;;23.92;14.60;;;21.70;1.00;;;;;;5035662;28;20040;-76
2022/04/15 08:49:41;;;;;;;26.83;13.60;;;21.90;1.00;;;;;;5025004;28;20138;-75
2022/04/15 08:52:10;;;;;;;21.92;13.25;;;22.10;1.00;;;;;;5036753;28;20270;-74
2022/04/15 08:54:38;;;;;;;25.98;14.82;;;22.30;1.00;;;;;;5037139;28;20037;-74
2022/04/15 08:57:06;;;;;;;21.98;12.77;;;22.40;1.00;;;;;;5041507;28;20045;-75
2022/04/15 08:59:34;;;;;;;28.65;12.93;;;22.60;1.00;;;;;;5036815;28;20167;-75
2022/04/15 09:02:01;;;;;;;23.38;13.38;;;22.70;1.00;;;;;;5023099;28;20041;-74
2022/04/15 09:04:33;;;;;;;20.27;10.88;;;22.70;1.00;;;;;;5016465;28;20046;-74
2022/04/15 09:07:02;;;;;;;22.80;12.70;;;22.50;1.00;;;;;;5016706;28;20092;-74
2022/04/15 09:09:30;;;;;;;18.40;11.57;;;22.50;1.00;;;;;;5026800;28;20038;-75
2022/04/15 09:12:03;;;;;;;16.67;10.15;;;22.50;1.00;;;;;;5036337;28;20072;-75
2022/04/15 09:14:30;;;;;;;20.30;11.38;;;22.60;1.00;;;;;;5035711;28;20064;-74
2022/04/15 09:16:58;;;;;;;21.42;11.25;;;22.70;1.00;;;;;;5038189;28;20049;-74
2022/04/15 09:19:26;;;;;;;15.98;11.07;;;22.90;1.00;;;;;;5035751;28;20076;-74
2022/04/15 09:21:55;;;;;;;21.05;11.82;;;23.10;1.00;;;;;;5036288;28;20041;-74
2022/04/15 09:24:32;;;;;;;22.58;11.60;;;23.00;1.00;;;;;;5036291;28;20060;-75
2022/04/15 09:27:03;;;;;;;20.98;13.88;;;23.20;1.00;;;;;;5036497;28;20156;-75
2022/04/15 09:29:34;;;;;;;21.67;11.30;;;23.20;1.00;;;;;;5036587;28;20424;-75
2022/04/15 09:32:07;;;;;;;14.23;9.10;;;23.30;1.00;;;;;;5036664;28;20141;-74
2022/04/15 09:34:36;;;;;;;15.18;10.10;;;23.40;1.00;;;;;;5036251;28;20053;-75
2022/04/15 09:37:07;;;;;;;17.52;9.82;;;23.50;1.00;;;;;;5040674;28;20061;-75
2022/04/15 09:39:34;;;;;;;20.50;9.20;;;23.50;1.00;;;;;;5033651;28;20041;-75
2022/04/15 09:42:08;;;;;;;11.63;7.25;;;23.60;1.00;;;;;;5040138;28;20497;-75
2022/04/15 09:44:36;;;;;;;15.25;8.35;;;23.80;1.00;;;;;;5039194;28;20044;-75
2022/04/15 09:47:06;;;;;;;14.05;8.20;;;23.90;1.00;;;;;;5040221;28;20107;-75
2022/04/15 09:49:35;;;;;;;12.95;9.25;;;23.90;1.00;;;;;;5038415;28;20042;-75
2022/04/15 09:52:03;;;;;;;10.55;7.35;;;23.90;1.00;;;;;;5039645;28;20574;-75
2022/04/15 09:54:37;;;;;;;33.20;7.95;;;24.00;1.00;;;;;;5039328;28;20455;-75
2022/04/15 09:57:10;;;;;;;14.32;8.00;;;24.00;1.00;;;;;;5037934;28;20042;-75
2022/04/15 09:59:38;;;;;;;13.43;7.40;;;24.10;1.00;;;;;;5036924;28;20045;-75
2022/04/15 10:02:13;;;;;;;16.52;8.27;;;24.20;1.00;;;;;;5036225;28;20117;-75
2022/04/15 10:04:42;;;;;;;8.65;6.10;;;24.30;1.00;;;;;;5036397;28;20092;-76
2022/04/15 10:07:13;;;;;;;12.05;6.57;;;24.30;1.00;;;;;;5036600;28;20111;-75
2022/04/15 10:09:43;;;;;;;9.30;5.38;;;24.40;1.00;;;;;;5024576;28;20075;-77
2022/04/15 10:12:12;;;;;;;11.55;5.90;;;24.40;1.00;;;;;;5050999;28;20049;-77
2022/04/15 10:14:40;;;;;;;8.25;5.80;;;24.40;1.00;;;;;;5038842;28;20045;-77
2022/04/15 10:17:08;;;;;;;12.93;6.32;;;24.30;1.00;;;;;;5037491;28;20041;-76
2022/04/15 10:19:38;;;;;;;9.82;6.28;;;24.40;1.00;;;;;;5039387;28;20480;-75
2022/04/15 10:22:06;;;;;;;10.50;6.40;;;24.40;1.00;;;;;;5037264;28;20095;-74
2022/04/15 10:24:34;;;;;;;10.32;6.35;;;24.30;1.00;;;;;;5036492;28;20053;-75
2022/04/15 10:27:02;;;;;;;16.65;7.70;;;24.40;1.00;;;;;;5036797;28;20045;-75
2022/04/15 10:29:39;;;;;;;9.23;5.25;;;24.50;1.00;;;;;;5036668;28;20045;-75
2022/04/15 10:32:14;;;;;;;9.95;5.68;;;24.70;1.00;;;;;;5018244;28;20042;-77
2022/04/15 10:34:46;;;;;;;11.55;5.60;;;24.70;1.00;;;;;;5036125;28;20052;-75
2022/04/15 10:37:14;;;;;;;11.50;7.18;;;24.70;1.00;;;;;;5036112;28;20134;-75
2022/04/15 10:39:47;;;;;;;10.02;6.10;;;24.80;1.00;;;;;;5036450;28;20131;-75
2022/04/15 10:42:19;;;;;;;9.40;5.85;;;24.80;1.00;;;;;;5035503;28;20065;-76
2022/04/15 10:44:48;;;;;;;15.23;6.80;;;24.80;1.00;;;;;;5035762;28;20099;-76
2022/04/15 10:47:36;;;;;;;11.38;7.00;;;25.00;1.00;;;;;;5036266;28;20053;-76
2022/04/15 10:50:06;;;;;;;13.60;5.82;;;24.90;1.00;;;;;;5020479;28;20052;-76
2022/04/15 10:52:36;;;;;;;12.07;5.53;;;25.00;1.00;;;;;;5019011;28;20042;-76
2022/04/15 10:55:06;;;;;;;10.48;6.40;;;25.00;1.00;;;;;;5018898;28;20048;-77
2022/04/15 10:57:35;;;;;;;10.10;6.90;;;25.00;1.00;;;;;;5018646;28;20056;-75
2022/04/15 11:02:57;;;;;;;14.43;6.93;;;25.20;1.00;;;;;;5019752;28;20418;-75
2022/04/15 11:05:55;;;;;;;13.98;7.05;;;25.30;1.00;;;;;;5017869;28;20050;-75
2022/04/15 11:08:24;;;;;;;8.52;5.35;;;25.30;1.00;;;;;;5016376;28;20054;-76
2022/04/15 11:11:05;;;;;;;7.97;4.65;;;25.20;1.00;;;;;;5016704;28;20053;-75
2022/04/15 11:13:49;;;;;;;12.25;5.45;;;25.40;1.00;;;;;;5016830;28;20553;-75
2022/04/15 11:16:19;;;;;;;10.60;5.93;;;25.40;1.00;;;;;;5005418;28;20054;-75
2022/04/15 11:18:48;;;;;;;14.77;7.00;;;25.40;1.00;;;;;;5017388;28;20125;-76
2022/04/15 11:21:17;;;;;;;11.40;8.50;;;25.40;1.00;;;;;;5017053;28;20049;-76
2022/04/15 11:23:48;;;;;;;9.95;6.50;;;25.40;1.00;;;;;;5033944;28;20056;-75
2022/04/15 11:26:16;;;;;;;9.13;4.93;;;25.40;1.00;;;;;;5038565;28;20061;-77
2022/04/15 11:28:46;;;;;;;7.35;4.65;;;25.40;1.00;;;;;;5037806;28;20107;-76
2022/04/15 11:31:26;;;;;;;13.20;5.05;;;25.20;1.00;;;;;;5038407;28;20076;-76
2022/04/15 11:33:57;;;;;;;11.13;4.65;;;25.40;1.00;;;;;;5038007;28;20043;-76
2022/04/15 11:36:26;;;;;;;12.05;4.88;;;25.40;1.00;;;;;;5043972;28;20103;-76
2022/04/15 11:38:53;;;;;;;8.23;4.22;;;25.40;1.00;;;;;;5043620;28;20053;-76
2022/04/15 11:41:22;;;;;;;6.03;4.15;;;25.10;1.00;;;;;;5035652;28;20045;-78
2022/04/15 11:43:56;;;;;;;8.45;4.43;;;25.20;1.00;;;;;;5017376;28;20132;-76
2022/04/15 11:46:25;;;;;;;6.78;4.13;;;25.30;1.00;;;;;;5037396;28;20116;-75
2022/04/15 11:48:55;;;;;;;9.60;4.82;;;25.40;1.00;;;;;;5039444;28;20072;-77
2022/04/15 11:51:25;;;;;;;9.30;6.00;;;25.40;1.00;;;;;;5037781;28;20129;-76
2022/04/15 11:53:54;;;;;;;14.65;5.00;;;25.50;1.00;;;;;;5037615;28;20068;-77
2022/04/15 11:56:29;;;;;;;13.32;4.97;;;25.50;1.00;;;;;;5037513;28;20045;-77
2022/04/15 11:58:59;;;;;;;8.65;5.60;;;25.60;1.00;;;;;;5038208;28;20054;-77
2022/04/15 12:01:30;;;;;;;11.18;7.10;;;25.70;1.00;;;;;;5041088;28;20069;-79
2022/04/15 12:04:01;;;;;;;14.52;6.35;;;25.80;1.00;;;;;;5022190;28;20053;-77
2022/04/15 12:06:30;;;;;;;8.50;4.35;;;26.00;1.00;;;;;;5019255;28;20049;-78
2022/04/15 12:08:58;;;;;;;7.20;4.38;;;26.00;1.00;;;;;;5016943;28;20107;-78
2022/04/15 12:11:27;;;;;;;7.00;4.00;;;25.80;1.00;;;;;;5034649;28;20046;-77
2022/04/15 12:13:56;;;;;;;7.68;4.70;;;25.80;1.00;;;;;;5034606;28;20124;-77
2022/04/15 12:16:24;;;;;;;9.02;4.57;;;25.70;1.00;;;;;;5034571;28;20447;-77
2022/04/15 12:18:54;;;;;;;10.38;6.05;;;25.70;1.00;;;;;;5034839;28;20053;-77
2022/04/15 12:21:22;;;;;;;8.70;5.18;;;25.70;1.00;;;;;;5037453;28;20068;-77
2022/04/15 12:24:06;;;;;;;12.10;5.22;;;25.80;1.00;;;;;;5044485;28;20041;-77
2022/04/15 12:26:47;;;;;;;7.55;4.90;;;25.70;1.00;;;;;;5039342;28;20061;-77
2022/04/15 12:32:21;;;;;;;15.70;8.40;;;25.50;1.00;;;;;;5019631;28;20049;-77
2022/04/15 12:34:52;;;;;;;7.75;5.50;;;25.60;1.00;;;;;;5019427;28;20049;-79
2022/04/15 12:37:36;;;;;;;13.25;6.10;;;25.60;1.00;;;;;;5037219;28;20108;-77
2022/04/15 12:40:07;;;;;;;11.65;5.38;;;25.70;1.00;;;;;;5037661;28;20057;-77
2022/04/15 12:42:36;;;;;;;7.95;4.75;;;25.70;1.00;;;;;;5038957;28;20107;-78
2022/04/15 12:45:09;;;;;;;9.85;5.60;;;25.60;1.00;;;;;;5037409;28;20478;-77
2022/04/15 12:47:37;;;;;;;9.77;5.18;;;25.60;1.00;;;;;;5020106;28;20119;-78
2022/04/15 12:50:20;;;;;;;7.82;4.97;;;25.50;1.00;;;;;;5020296;28;20049;-78
2022/04/15 12:52:49;;;;;;;8.75;5.32;;;25.50;1.00;;;;;;5020127;28;20408;-75
2022/04/15 12:55:26;;;;;;;8.77;4.63;;;25.60;1.00;;;;;;5018654;28;20048;-77
2022/04/15 12:57:53;;;;;;;8.55;5.03;;;25.60;1.00;;;;;;5020303;28;20053;-76
2022/04/15 13:00:21;;;;;;;10.93;5.32;;;25.60;1.00;;;;;;5037060;28;20124;-78